AGGH/HIR METAR and TAF weather

Enter ICAO airport designator
Station Type Date Time Source
AGGH METAR 2021/04/13 23:00 UTC NOAA

AGGH 132300Z 16003KT 9999 FEW017 FEW018CB BKN110 29/25 Q1009 RMK CB TO N


Station Type Date Time Source
AGGH Decoded METAR 2021/04/13 23:00 UTC NOAA

Honiara / Henderson, Solomon Islands (AGGH) 09-25S 160-03E 9M
Apr 13, 2021 - 07:00 PM EDT / 2021.04.13 2300 UTC
Wind: from the SSE (160 degrees) at 3 MPH (3 KT):0
Visibility: greater than 7 mile(s):0
Sky conditions: mostly cloudy
Weather: Cumulonimbus clouds observed
Temperature: 84 F (29 C)
Dew Point: 77 F (25 C)
Relative Humidity: 79%
Pressure (altimeter): 29.80 in. Hg (1009 hPa)
ob: AGGH 132300Z 16003KT 9999 FEW017 FEW018CB BKN110 29/25 Q1009 RMK CB TO N
cycle: 23

Station Type Date Time Source
AGGH TAF 2021/04/13 18:20 UTC NOAA

TAF AGGH 131710Z 1318/1418 05012KT 9999 FEW018 SCT100 PROB40 INTER 1319/1409 5000 TSSH BKN015 FEW016CB T 24 26 30 31 Q 1008 1010 1010 1008

Example: see airport list